createdAt,value
2022-12-18T00:02:11.173Z,21.20
2022-12-18T00:04:37.569Z,20.98
2022-12-18T00:07:04.013Z,21.30
2022-12-18T00:09:39.178Z,21.85
2022-12-18T00:14:42.758Z,18.95
2022-12-18T00:17:09.145Z,21.13
2022-12-18T00:19:35.553Z,21.23
2022-12-18T00:22:01.902Z,25.73
2022-12-18T00:24:28.240Z,21.73
2022-12-18T00:26:54.571Z,27.05
2022-12-18T00:29:20.966Z,21.20
2022-12-18T00:31:47.351Z,22.37
2022-12-18T00:34:14.213Z,19.70
2022-12-18T00:36:41.212Z,20.85
2022-12-18T00:39:07.619Z,22.95
2022-12-18T00:41:52.430Z,22.05
2022-12-18T00:44:19.603Z,21.07
2022-12-18T00:46:46.789Z,19.17
2022-12-18T00:49:13.312Z,24.80
2022-12-18T00:51:39.933Z,21.17
2022-12-18T00:54:06.372Z,22.30
2022-12-18T00:56:32.869Z,20.00
2022-12-18T00:58:59.259Z,21.25
2022-12-18T01:01:25.725Z,20.98
2022-12-18T01:03:52.167Z,23.23
2022-12-18T01:06:18.565Z,26.02
2022-12-18T01:08:45.203Z,24.10
2022-12-18T01:11:16.979Z,27.02
2022-12-18T01:13:43.838Z,27.60
2022-12-18T01:16:13.522Z,29.33
2022-12-18T01:18:40.146Z,27.10
2022-12-18T01:21:11.650Z,30.73
2022-12-18T01:23:38.986Z,34.47
2022-12-18T01:26:11.034Z,31.02
2022-12-18T01:28:37.890Z,29.08
2022-12-18T01:31:12.016Z,28.33
2022-12-18T01:33:38.743Z,32.27
2022-12-18T01:36:05.788Z,29.98
2022-12-18T01:38:32.177Z,28.17
2022-12-18T01:40:59.831Z,33.00
2022-12-18T01:43:48.002Z,35.75
2022-12-18T01:46:15.251Z,28.73
2022-12-18T01:48:43.297Z,31.15
2022-12-18T01:51:12.017Z,32.50
2022-12-18T01:53:41.381Z,34.05
2022-12-18T01:56:09.164Z,28.67
2022-12-18T01:59:00.783Z,26.77
2022-12-18T02:01:27.811Z,30.02
2022-12-18T02:03:54.314Z,28.30
2022-12-18T02:06:37.406Z,30.70
2022-12-18T02:09:35.968Z,32.53
2022-12-18T02:12:17.774Z,27.23
2022-12-18T02:15:06.492Z,29.95
2022-12-18T02:17:40.748Z,26.45
2022-12-18T02:20:17.393Z,26.58
2022-12-18T02:22:43.653Z,30.30
2022-12-18T02:25:28.792Z,29.03
2022-12-18T02:28:00.493Z,26.25
2022-12-18T02:30:29.964Z,28.00
2022-12-18T02:32:58.462Z,30.90
2022-12-18T02:35:28.569Z,26.67
2022-12-18T02:37:56.152Z,31.80
2022-12-18T02:40:25.215Z,27.48
2022-12-18T02:42:51.562Z,28.45
2022-12-18T02:45:18.278Z,24.95
2022-12-18T02:47:48.818Z,30.40
2022-12-18T02:50:27.919Z,31.23
2022-12-18T02:53:11.061Z,31.55
2022-12-18T02:56:12.912Z,35.28
2022-12-18T02:59:13.597Z,33.95
2022-12-18T03:01:51.798Z,32.55
2022-12-18T03:04:46.470Z,26.47
2022-12-18T03:07:36.307Z,32.45
2022-12-18T03:10:03.512Z,34.95
2022-12-18T03:12:38.722Z,34.92
2022-12-18T03:15:20.416Z,32.42
2022-12-18T03:17:53.400Z,30.90
2022-12-18T03:20:22.293Z,29.30
2022-12-18T03:22:55.369Z,27.40
2022-12-18T03:25:22.722Z,30.10
2022-12-18T03:27:54.769Z,28.65
2022-12-18T03:30:21.678Z,24.83
2022-12-18T03:33:00.375Z,28.27
2022-12-18T03:35:31.870Z,32.05
2022-12-18T03:37:58.422Z,24.58
2022-12-18T03:40:36.093Z,26.55
2022-12-18T03:43:13.656Z,27.90
2022-12-18T03:45:47.337Z,29.90
2022-12-18T03:48:27.230Z,26.35
2022-12-18T03:51:15.997Z,27.77
2022-12-18T03:53:52.549Z,27.63
2022-12-18T03:56:21.454Z,26.87
2022-12-18T03:58:50.696Z,30.40
2022-12-18T04:01:18.673Z,28.63
2022-12-18T04:03:49.134Z,25.67
2022-12-18T04:06:17.488Z,29.15
2022-12-18T04:08:45.100Z,29.93
2022-12-18T04:11:11.589Z,26.73
2022-12-18T04:13:39.585Z,27.85
2022-12-18T04:16:06.924Z,31.40
2022-12-18T04:18:33.499Z,27.48
2022-12-18T04:20:59.904Z,26.07
2022-12-18T04:23:26.325Z,28.95
2022-12-18T04:25:52.702Z,29.38
2022-12-18T04:28:19.053Z,27.55
2022-12-18T04:30:50.947Z,28.50
2022-12-18T04:33:17.344Z,26.90
2022-12-18T04:35:44.370Z,32.17
2022-12-18T04:38:10.920Z,28.42
2022-12-18T04:40:38.860Z,27.70
2022-12-18T04:43:06.022Z,28.77
2022-12-18T04:45:33.403Z,28.37
2022-12-18T04:48:01.198Z,32.63
2022-12-18T04:50:28.292Z,26.70
2022-12-18T04:52:54.752Z,33.88
2022-12-18T04:55:21.619Z,26.45
2022-12-18T04:57:47.997Z,32.80
2022-12-18T05:00:15.261Z,33.58
2022-12-18T05:02:41.692Z,29.30
2022-12-18T05:05:08.934Z,27.83
2022-12-18T05:07:35.319Z,28.48
2022-12-18T05:10:01.684Z,32.17
2022-12-18T05:12:28.140Z,28.60
2022-12-18T05:14:54.491Z,33.10
2022-12-18T05:17:20.912Z,29.90
2022-12-18T05:19:47.291Z,29.65
2022-12-18T05:22:13.691Z,33.57
2022-12-18T05:24:40.035Z,28.33
2022-12-18T05:27:06.382Z,29.13
2022-12-18T05:29:32.744Z,28.02
2022-12-18T05:31:59.093Z,29.88
2022-12-18T05:34:25.463Z,27.20
2022-12-18T05:36:51.796Z,29.02
2022-12-18T05:39:18.289Z,30.33
2022-12-18T05:41:44.634Z,29.13
2022-12-18T05:44:11.001Z,31.10
2022-12-18T05:46:37.417Z,28.63
2022-12-18T05:49:03.832Z,27.73
2022-12-18T05:51:30.196Z,28.90
2022-12-18T05:53:56.583Z,25.20
2022-12-18T05:56:23.964Z,26.88
2022-12-18T05:58:55.156Z,29.53
2022-12-18T06:01:27.214Z,28.45
2022-12-18T06:03:53.876Z,26.80
2022-12-18T06:06:23.684Z,27.73
2022-12-18T06:08:50.969Z,28.42
2022-12-18T06:11:19.876Z,31.20
2022-12-18T06:13:47.336Z,27.67
2022-12-18T06:16:13.785Z,27.60
2022-12-18T06:18:40.226Z,28.77
2022-12-18T06:21:06.627Z,34.08
2022-12-18T06:23:33.244Z,25.27
2022-12-18T06:25:59.705Z,27.35
2022-12-18T06:28:26.188Z,31.95
2022-12-18T06:30:52.550Z,23.30
2022-12-18T06:33:18.978Z,28.38
2022-12-18T06:35:45.322Z,27.83
2022-12-18T06:38:11.725Z,29.52
2022-12-18T06:40:39.889Z,29.08
2022-12-18T06:43:07.106Z,29.35
2022-12-18T06:45:33.724Z,30.65
2022-12-18T06:48:00.233Z,27.93
2022-12-18T06:50:26.732Z,29.42
2022-12-18T06:52:53.122Z,30.08
2022-12-18T06:55:19.461Z,29.90
2022-12-18T06:57:45.885Z,39.85
2022-12-18T07:00:12.529Z,33.87
2022-12-18T07:02:39.094Z,29.05
2022-12-18T07:05:10.437Z,30.08
2022-12-18T07:07:37.623Z,29.25
2022-12-18T07:10:04.363Z,28.27
2022-12-18T07:12:30.736Z,28.70
2022-12-18T07:14:57.091Z,31.45
2022-12-18T07:17:23.478Z,25.13
2022-12-18T07:19:49.850Z,28.67
2022-12-18T07:22:16.192Z,26.85
2022-12-18T07:24:42.576Z,28.50
2022-12-18T07:27:08.927Z,29.17
2022-12-18T07:29:36.635Z,37.42
2022-12-18T07:32:03.086Z,30.27
2022-12-18T07:34:29.541Z,30.00
2022-12-18T07:36:55.896Z,33.33
2022-12-18T07:39:22.314Z,32.50
2022-12-18T07:42:08.643Z,28.15
2022-12-18T07:44:35.117Z,29.25
2022-12-18T07:47:01.594Z,33.55
2022-12-18T07:49:28.735Z,27.47
2022-12-18T07:51:57.008Z,26.58
2022-12-18T07:54:24.375Z,24.60
2022-12-18T07:56:51.586Z,27.20
2022-12-18T07:59:18.387Z,30.77
2022-12-18T08:01:44.994Z,28.93
2022-12-18T08:04:13.351Z,26.73
2022-12-18T08:06:41.700Z,31.90
2022-12-18T08:09:11.396Z,30.25
2022-12-18T08:11:37.766Z,33.45
2022-12-18T08:14:04.209Z,25.70
2022-12-18T08:16:31.305Z,26.88
2022-12-18T08:18:57.745Z,28.17
2022-12-18T08:21:29.417Z,29.60
2022-12-18T08:23:57.864Z,39.85
2022-12-18T08:26:25.519Z,44.73
2022-12-18T08:28:52.443Z,29.85
2022-12-18T08:31:19.959Z,56.90
2022-12-18T08:33:50.427Z,25.33
2022-12-18T08:36:17.427Z,36.90
2022-12-18T08:38:43.815Z,32.83
2022-12-18T08:41:13.613Z,35.92
2022-12-18T08:43:58.417Z,31.65
2022-12-18T08:46:26.438Z,38.03
2022-12-18T08:48:54.255Z,32.70
2022-12-18T08:51:21.155Z,26.87
2022-12-18T08:53:47.715Z,28.23
2022-12-18T08:56:15.345Z,31.70
2022-12-18T08:58:42.636Z,29.92
2022-12-18T09:01:11.970Z,32.55
2022-12-18T09:03:39.433Z,29.40
2022-12-18T09:06:06.999Z,33.38
2022-12-18T09:08:37.541Z,31.77
2022-12-18T09:11:04.497Z,30.77
2022-12-18T09:13:31.121Z,26.73
2022-12-18T09:15:57.484Z,26.57
2022-12-18T09:18:24.672Z,30.30
2022-12-18T09:20:54.021Z,31.45
2022-12-18T09:23:21.670Z,27.27
2022-12-18T09:25:48.550Z,33.88
2022-12-18T09:28:17.179Z,32.27
2022-12-18T09:30:46.934Z,32.67
2022-12-18T09:33:13.676Z,36.75
2022-12-18T09:35:42.247Z,34.50
2022-12-18T09:38:12.303Z,29.23
2022-12-18T09:40:53.728Z,30.60
2022-12-18T09:43:38.046Z,30.83
2022-12-18T09:46:08.827Z,28.27
2022-12-18T09:48:45.299Z,40.45
2022-12-18T09:51:19.282Z,36.33
2022-12-18T09:53:56.103Z,36.77
2022-12-18T09:56:24.044Z,36.08
2022-12-18T09:58:58.246Z,31.23
2022-12-18T10:01:25.255Z,62.90
2022-12-18T10:03:53.195Z,35.28
2022-12-18T10:06:24.618Z,37.80
2022-12-18T10:09:16.152Z,36.20
2022-12-18T10:11:48.283Z,34.35
2022-12-18T10:14:29.816Z,35.72
2022-12-18T10:17:23.891Z,33.50
2022-12-18T10:19:53.001Z,36.20
2022-12-18T10:22:40.277Z,31.73
2022-12-18T10:25:27.763Z,33.58
2022-12-18T10:28:08.400Z,33.15
2022-12-18T10:30:34.766Z,33.95
2022-12-18T10:33:02.572Z,34.30
2022-12-18T10:35:29.122Z,36.78
2022-12-18T10:38:21.619Z,35.38
2022-12-18T10:40:50.718Z,42.40
2022-12-18T10:43:25.427Z,35.85
2022-12-18T10:46:10.018Z,39.87
2022-12-18T10:48:48.331Z,45.25
2022-12-18T10:51:22.952Z,49.28
2022-12-18T10:53:56.453Z,40.10
2022-12-18T10:56:24.716Z,36.40
2022-12-18T10:58:59.532Z,35.50
2022-12-18T11:01:26.601Z,34.67
2022-12-18T11:04:00.453Z,38.95
2022-12-18T11:06:28.480Z,50.80
2022-12-18T11:09:01.945Z,38.03
2022-12-18T11:11:29.694Z,33.50
2022-12-18T11:14:06.458Z,35.58
2022-12-18T11:17:03.110Z,41.35
2022-12-18T11:19:37.724Z,40.72
2022-12-18T11:22:27.411Z,38.50
2022-12-18T11:25:30.023Z,34.63
2022-12-18T11:27:50.568Z,41.78
2022-12-18T11:30:32.527Z,42.35
2022-12-18T11:33:19.830Z,45.55
2022-12-18T11:35:56.844Z,45.25
2022-12-18T11:38:29.888Z,37.43
2022-12-18T11:41:04.539Z,43.70
2022-12-18T11:43:42.162Z,41.15
2022-12-18T11:46:19.412Z,42.95
2022-12-18T11:49:02.891Z,91.93
2022-12-18T11:51:38.250Z,70.27
2022-12-18T11:54:14.648Z,46.75
2022-12-18T11:56:52.408Z,41.75
2022-12-18T11:59:45.955Z,61.03
2022-12-18T12:02:26.601Z,48.60
2022-12-18T12:05:14.172Z,58.20
2022-12-18T12:07:56.859Z,42.40
2022-12-18T12:10:33.254Z,49.85
2022-12-18T12:13:44.232Z,44.75
2022-12-18T12:16:22.645Z,46.22
2022-12-18T12:19:26.311Z,44.87
2022-12-18T12:22:04.907Z,39.10
2022-12-18T12:24:40.497Z,46.88
2022-12-18T12:27:34.584Z,46.95
2022-12-18T12:30:16.379Z,48.30
2022-12-18T12:33:01.088Z,53.40
2022-12-18T12:35:47.629Z,51.30
2022-12-18T12:38:21.406Z,49.97
2022-12-18T12:41:02.874Z,50.47
2022-12-18T12:43:48.070Z,51.55
2022-12-18T12:46:20.644Z,51.07
2022-12-18T12:48:53.500Z,47.15
2022-12-18T12:51:23.778Z,58.05
2022-12-18T12:53:51.200Z,54.13
2022-12-18T12:56:20.183Z,53.65
2022-12-18T12:59:02.928Z,63.47
2022-12-18T13:01:54.244Z,53.53
2022-12-18T13:04:36.754Z,56.63
2022-12-18T13:07:14.926Z,53.53
2022-12-18T13:10:26.873Z,45.35
2022-12-18T13:12:58.098Z,52.97
2022-12-18T13:15:36.791Z,50.35
2022-12-18T13:18:11.508Z,46.42
2022-12-18T13:21:16.623Z,44.92
2022-12-18T13:23:43.618Z,54.80
2022-12-18T13:26:23.371Z,47.67
2022-12-18T13:28:55.531Z,50.05
2022-12-18T13:31:40.156Z,47.50
2022-12-18T13:34:26.889Z,47.08
2022-12-18T13:36:56.640Z,48.67
2022-12-18T13:39:34.800Z,49.93
2022-12-18T13:42:08.458Z,47.00
2022-12-18T13:44:44.350Z,51.88
2022-12-18T13:47:27.137Z,56.50
2022-12-18T13:49:53.814Z,48.05
2022-12-18T13:52:23.806Z,48.53
2022-12-18T13:54:54.205Z,49.35
2022-12-18T13:57:39.173Z,45.60
2022-12-18T14:00:29.385Z,52.03
2022-12-18T14:02:58.026Z,52.08
2022-12-18T14:05:30.890Z,48.30
2022-12-18T14:08:06.584Z,55.47
2022-12-18T14:10:45.607Z,51.22
2022-12-18T14:13:30.155Z,53.83
2022-12-18T14:15:57.768Z,42.65
2022-12-18T14:18:34.591Z,45.13
2022-12-18T14:21:03.589Z,41.28
2022-12-18T14:23:33.476Z,45.58
2022-12-18T14:26:05.830Z,39.45
2022-12-18T14:28:32.993Z,44.90
2022-12-18T14:30:59.399Z,47.60
2022-12-18T14:33:28.219Z,43.00
2022-12-18T14:36:06.323Z,48.00
2022-12-18T14:38:40.785Z,48.70
2022-12-18T14:41:12.681Z,51.15
2022-12-18T14:43:42.672Z,39.03
2022-12-18T14:46:29.422Z,45.38
2022-12-18T14:48:56.362Z,45.97
2022-12-18T14:51:25.683Z,52.05
2022-12-18T14:53:59.341Z,47.15
2022-12-18T14:56:28.787Z,50.63
2022-12-18T14:59:07.015Z,46.50
2022-12-18T15:01:47.816Z,44.65
2022-12-18T15:04:36.017Z,54.05
2022-12-18T15:07:11.628Z,43.40
2022-12-18T15:09:39.420Z,50.10
2022-12-18T15:12:06.248Z,54.63
2022-12-18T15:14:39.753Z,45.50
2022-12-18T15:17:17.304Z,49.60
2022-12-18T15:19:45.288Z,42.67
2022-12-18T15:22:34.629Z,44.00
2022-12-18T15:25:01.685Z,49.17
2022-12-18T15:27:36.814Z,54.15
2022-12-18T15:30:06.014Z,43.72
2022-12-18T15:32:32.385Z,49.83
2022-12-18T15:35:24.688Z,38.83
2022-12-18T15:37:53.193Z,46.38
2022-12-18T15:40:24.788Z,45.65
2022-12-18T15:43:27.395Z,46.67
2022-12-18T15:45:53.833Z,48.00
2022-12-18T15:48:24.288Z,39.05
2022-12-18T15:50:57.658Z,42.15
2022-12-18T15:53:25.546Z,41.20
2022-12-18T15:56:10.323Z,49.47
2022-12-18T15:58:36.879Z,44.40
2022-12-18T16:01:03.835Z,45.43
2022-12-18T16:03:30.399Z,63.80
2022-12-18T16:05:56.865Z,55.92
2022-12-18T16:08:24.738Z,45.55
2022-12-18T16:10:51.087Z,44.45
2022-12-18T16:13:20.666Z,44.63
2022-12-18T16:15:47.110Z,52.55
2022-12-18T16:18:13.490Z,42.22
2022-12-18T16:20:40.222Z,45.45
2022-12-18T16:23:06.587Z,48.25
2022-12-18T16:25:33.382Z,43.17
2022-12-18T16:27:59.854Z,44.55
2022-12-18T16:30:32.764Z,45.35
2022-12-18T16:33:05.657Z,46.00
2022-12-18T16:35:33.961Z,42.72
2022-12-18T16:38:00.459Z,50.80
2022-12-18T16:40:26.913Z,40.28
2022-12-18T16:42:53.276Z,42.08
2022-12-18T16:45:19.721Z,43.33
2022-12-18T16:47:46.213Z,44.15
2022-12-18T16:50:13.065Z,46.47
2022-12-18T16:52:39.815Z,40.92
2022-12-18T16:55:06.706Z,42.20
2022-12-18T16:57:33.095Z,40.75
2022-12-18T17:00:04.706Z,44.20
2022-12-18T17:02:32.383Z,50.37
2022-12-18T17:04:59.004Z,42.80
2022-12-18T17:07:26.462Z,44.30
2022-12-18T17:09:54.027Z,41.67
2022-12-18T17:12:20.812Z,42.75
2022-12-18T17:14:47.166Z,43.47
2022-12-18T17:17:22.770Z,40.33
2022-12-18T17:19:50.261Z,49.80
2022-12-18T17:22:16.611Z,46.45
2022-12-18T17:24:43.035Z,49.58
2022-12-18T17:27:09.435Z,42.93
2022-12-18T17:29:36.058Z,40.83
2022-12-18T17:32:02.492Z,45.95
2022-12-18T17:34:30.077Z,44.20
2022-12-18T17:36:57.253Z,47.67
2022-12-18T17:39:23.706Z,45.53
2022-12-18T17:41:50.565Z,40.83
2022-12-18T17:44:17.938Z,45.13
2022-12-18T17:46:44.454Z,41.33
2022-12-18T17:49:11.708Z,40.45
2022-12-18T17:51:38.159Z,44.43
2022-12-18T17:54:05.349Z,49.13
2022-12-18T17:56:32.748Z,47.45
2022-12-18T17:58:59.560Z,39.53
2022-12-18T18:01:26.382Z,41.40
2022-12-18T18:03:54.159Z,41.77
2022-12-18T18:06:21.075Z,38.25
2022-12-18T18:08:47.665Z,40.50
2022-12-18T18:11:35.537Z,43.70
2022-12-18T18:14:05.090Z,40.95
2022-12-18T18:16:34.324Z,39.90
2022-12-18T18:19:03.556Z,37.35
2022-12-18T18:21:30.881Z,37.90
2022-12-18T18:24:02.363Z,37.28
2022-12-18T18:26:31.730Z,42.08
2022-12-18T18:29:00.555Z,42.17
2022-12-18T18:31:30.537Z,38.53
2022-12-18T18:33:57.803Z,40.70
2022-12-18T18:36:24.690Z,43.78
2022-12-18T18:38:51.826Z,38.47
2022-12-18T18:41:19.162Z,38.00
2022-12-18T18:43:46.015Z,36.95
2022-12-18T18:46:16.647Z,48.75
2022-12-18T18:48:43.800Z,52.15
2022-12-18T18:51:20.795Z,40.70
2022-12-18T18:53:50.330Z,38.13
2022-12-18T18:56:56.679Z,40.65
2022-12-18T18:59:05.772Z,40.10
2022-12-18T19:01:32.898Z,38.50
2022-12-18T19:04:04.160Z,40.13
2022-12-18T19:06:30.709Z,46.33
2022-12-18T19:08:58.468Z,42.70
2022-12-18T19:11:44.479Z,49.63
2022-12-18T19:14:13.307Z,42.53
2022-12-18T19:16:40.209Z,47.30
2022-12-18T19:19:07.660Z,47.70
2022-12-18T19:21:34.915Z,50.10
2022-12-18T19:24:02.343Z,45.03
2022-12-18T19:26:29.157Z,39.42
2022-12-18T19:29:02.017Z,47.15
2022-12-18T19:31:34.845Z,49.97
2022-12-18T19:34:02.102Z,39.65
2022-12-18T19:36:30.056Z,39.00
2022-12-18T19:38:59.373Z,44.08
2022-12-18T19:41:29.211Z,40.67
2022-12-18T19:43:58.349Z,41.53
2022-12-18T19:46:24.845Z,40.75
2022-12-18T19:48:51.369Z,46.63
2022-12-18T19:51:23.638Z,41.30
2022-12-18T19:53:55.115Z,39.65
2022-12-18T19:56:26.782Z,40.97
2022-12-18T19:58:54.285Z,46.42
2022-12-18T20:01:23.195Z,51.08
2022-12-18T20:03:51.840Z,48.08
2022-12-18T20:06:26.977Z,39.03
2022-12-18T20:08:56.807Z,41.93
2022-12-18T20:11:28.254Z,36.95
2022-12-18T20:13:54.686Z,39.20
2022-12-18T20:16:21.126Z,39.78
2022-12-18T20:18:48.189Z,34.97
2022-12-18T20:21:14.772Z,37.87
2022-12-18T20:23:41.816Z,45.47
2022-12-18T20:26:08.807Z,43.47
2022-12-18T20:28:35.741Z,42.20
2022-12-18T20:31:04.785Z,37.15
2022-12-18T20:33:31.410Z,40.37
2022-12-18T20:36:06.150Z,44.85
2022-12-18T20:38:34.414Z,39.72
2022-12-18T20:41:02.344Z,39.38
2022-12-18T20:43:29.961Z,40.50
2022-12-18T20:46:07.947Z,42.60
2022-12-18T20:48:34.673Z,46.38
2022-12-18T20:51:10.507Z,40.10
2022-12-18T20:53:37.672Z,41.20
2022-12-18T20:56:12.097Z,39.17
2022-12-18T20:58:38.840Z,36.97
2022-12-18T21:01:12.397Z,39.30
2022-12-18T21:03:40.861Z,38.95
2022-12-18T21:06:08.537Z,38.17
2022-12-18T21:08:34.988Z,42.47
2022-12-18T21:11:38.326Z,46.43
2022-12-18T21:14:07.000Z,34.90
2022-12-18T21:16:33.519Z,39.22
2022-12-18T21:18:59.942Z,43.63
2022-12-18T21:21:27.189Z,43.90
2022-12-18T21:23:54.089Z,45.00
2022-12-18T21:26:25.615Z,39.00
2022-12-18T21:28:59.567Z,44.92
2022-12-18T21:31:29.237Z,38.47
2022-12-18T21:34:01.829Z,39.05
2022-12-18T21:36:29.905Z,38.63
2022-12-18T21:38:57.438Z,37.92
2022-12-18T21:41:43.815Z,41.92
2022-12-18T21:44:12.355Z,36.30
2022-12-18T21:46:41.202Z,43.67
2022-12-18T21:49:08.590Z,40.60
2022-12-18T21:51:36.191Z,38.15
2022-12-18T21:54:03.833Z,42.55
2022-12-18T21:56:50.579Z,40.97
2022-12-18T21:59:19.877Z,41.53
2022-12-18T22:01:46.968Z,46.43
2022-12-18T22:04:14.045Z,43.30
2022-12-18T22:06:42.560Z,39.45
2022-12-18T22:09:10.832Z,44.78
2022-12-18T22:11:37.350Z,39.20
2022-12-18T22:14:04.080Z,41.47
2022-12-18T22:16:30.747Z,35.28
2022-12-18T22:18:57.102Z,41.60
2022-12-18T22:21:31.602Z,39.97
2022-12-18T22:24:02.776Z,45.25
2022-12-18T22:26:33.891Z,36.70
2022-12-18T22:29:23.900Z,45.10
2022-12-18T22:31:50.318Z,40.15
2022-12-18T22:34:21.905Z,42.28
2022-12-18T22:36:49.456Z,43.70
2022-12-18T22:39:18.919Z,44.23
2022-12-18T22:41:45.869Z,37.83
2022-12-18T22:44:12.456Z,40.03
2022-12-18T22:46:47.230Z,39.35
2022-12-18T22:49:20.299Z,39.53
2022-12-18T22:51:47.058Z,36.17
2022-12-18T22:54:13.500Z,44.63
2022-12-18T22:56:40.468Z,40.33
2022-12-18T22:59:09.170Z,46.92
2022-12-18T23:01:36.748Z,42.08
2022-12-18T23:04:05.260Z,39.57
2022-12-18T23:06:31.612Z,38.35
2022-12-18T23:08:58.122Z,41.55
2022-12-18T23:11:26.557Z,43.13
2022-12-18T23:13:56.566Z,39.88
2022-12-18T23:16:25.255Z,42.20
2022-12-18T23:18:56.384Z,40.47
2022-12-18T23:21:23.893Z,41.80
2022-12-18T23:23:50.879Z,47.35
2022-12-18T23:26:24.783Z,43.63
2022-12-18T23:28:52.438Z,43.47
2022-12-18T23:31:38.721Z,45.15
2022-12-18T23:34:06.331Z,40.13
2022-12-18T23:36:43.535Z,41.70
2022-12-18T23:39:28.426Z,37.40
2022-12-18T23:41:57.523Z,36.90
2022-12-18T23:44:23.911Z,39.95
2022-12-18T23:46:50.468Z,40.40
2022-12-18T23:49:16.933Z,41.42
2022-12-18T23:51:43.524Z,39.90
2022-12-18T23:54:10.334Z,42.83
2022-12-18T23:56:36.729Z,43.67
2022-12-18T23:59:03.232Z,45.17
